Time;durP1;ratioP1;P1;durP2;ratioP2;P2;SDS_P1;SDS_P2;PMS_P1;PMS_P2;Temp;Humidity;BMP_temperature;BMP_pressure;BME280_temperature;BME280_humidity;BME280_pressure;Samples;Min_cycle;Max_cycle;Signal;HPM_P1;HPM_P2
2023/09/21 00:00:27;;;;;;;14.95;14.45;;;16.90;99.90;;;;;;5058264;28;20760;-65
2023/09/21 00:02:55;;;;;;;15.38;14.88;;;16.90;99.90;;;;;;5062850;28;20268;-64
2023/09/21 00:05:29;;;;;;;15.02;14.52;;;16.90;99.90;;;;;;5063442;28;20250;-64
2023/09/21 00:07:57;;;;;;;16.15;15.55;;;16.90;99.90;;;;;;5057863;28;20211;-64
2023/09/21 00:10:31;;;;;;;15.63;15.13;;;16.90;99.90;;;;;;5060331;28;20243;-65
2023/09/21 00:12:58;;;;;;;15.43;14.82;;;16.90;99.90;;;;;;5058116;28;20291;-65
2023/09/21 00:15:29;;;;;;;16.63;16.02;;;16.90;99.90;;;;;;5057224;28;20295;-64
2023/09/21 00:17:57;;;;;;;15.37;14.87;;;16.90;99.90;;;;;;5059537;28;20242;-64
2023/09/21 00:20:28;;;;;;;14.88;14.38;;;16.90;99.90;;;;;;5056183;28;20310;-64
2023/09/21 00:22:55;;;;;;;15.93;15.43;;;16.90;99.90;;;;;;5057568;28;20860;-64
2023/09/21 00:25:23;;;;;;;16.02;15.43;;;16.90;99.90;;;;;;5056107;28;20203;-64
2023/09/21 00:27:50;;;;;;;14.88;14.38;;;17.00;99.90;;;;;;5056987;28;20215;-65
2023/09/21 00:30:17;;;;;;;15.95;15.40;;;17.00;99.90;;;;;;5056983;28;20219;-66
2023/09/21 00:32:44;;;;;;;14.43;13.90;;;17.00;99.90;;;;;;5056796;28;20208;-64
2023/09/21 00:35:12;;;;;;;14.05;13.55;;;17.10;99.90;;;;;;5063378;28;20230;-64
2023/09/21 00:37:41;;;;;;;14.43;13.93;;;17.10;99.90;;;;;;5066187;28;20311;-64
2023/09/21 00:40:23;;;;;;;15.13;14.63;;;17.20;99.90;;;;;;5067780;28;20227;-64
2023/09/21 00:42:51;;;;;;;13.55;13.05;;;17.20;99.90;;;;;;5063682;28;20216;-63
2023/09/21 00:45:18;;;;;;;13.50;13.00;;;17.30;99.90;;;;;;5063390;28;20299;-64
2023/09/21 00:47:49;;;;;;;15.37;14.77;;;17.30;99.90;;;;;;5057288;28;20204;-64
2023/09/21 00:50:22;;;;;;;13.83;13.33;;;17.30;99.90;;;;;;5058802;28;20223;-63
2023/09/21 00:52:52;;;;;;;14.03;13.53;;;17.30;99.90;;;;;;5068277;28;20654;-63
2023/09/21 00:55:25;;;;;;;12.60;12.20;;;17.30;99.90;;;;;;5067372;28;20227;-62
2023/09/21 00:57:55;;;;;;;12.95;12.55;;;17.40;99.90;;;;;;5064544;28;20887;-62
2023/09/21 01:00:26;;;;;;;12.77;12.35;;;17.50;99.90;;;;;;5064545;28;20654;-63
2023/09/21 01:02:56;;;;;;;12.50;12.10;;;17.50;99.90;;;;;;5070006;28;20199;-64
2023/09/21 01:05:23;;;;;;;12.80;12.30;;;17.60;99.90;;;;;;5070130;28;20579;-64
2023/09/21 01:07:51;;;;;;;12.47;12.07;;;17.70;99.90;;;;;;5070729;28;20211;-64
2023/09/21 01:10:21;;;;;;;12.63;12.23;;;17.70;99.90;;;;;;5064698;28;20231;-64
2023/09/21 01:12:50;;;;;;;13.55;13.05;;;17.80;99.90;;;;;;5071939;28;20294;-64
2023/09/21 01:15:18;;;;;;;12.73;12.33;;;17.80;99.90;;;;;;5071199;28;20226;-64
2023/09/21 01:17:46;;;;;;;21.77;20.80;;;17.90;99.90;;;;;;5077241;28;20233;-64
2023/09/21 01:20:22;;;;;;;13.18;12.68;;;17.90;99.90;;;;;;5087649;28;20234;-65
2023/09/21 01:22:58;;;;;;;12.63;12.23;;;17.90;99.90;;;;;;5083559;28;20263;-65
2023/09/21 01:25:27;;;;;;;13.13;12.63;;;17.90;99.90;;;;;;5085183;28;20210;-64
2023/09/21 01:27:54;;;;;;;13.02;12.52;;;17.90;99.90;;;;;;5085128;28;20235;-65
2023/09/21 01:30:22;;;;;;;13.00;12.50;;;18.00;99.90;;;;;;5074712;28;20265;-63
2023/09/21 01:32:48;;;;;;;12.60;12.20;;;18.00;99.90;;;;;;5075323;28;20211;-66
2023/09/21 01:35:16;;;;;;;12.87;12.27;;;18.00;99.90;;;;;;5076321;28;20329;-64
2023/09/21 01:37:43;;;;;;;11.90;11.50;;;18.10;99.90;;;;;;5075402;28;20229;-64
2023/09/21 01:40:15;;;;;;;12.05;11.65;;;18.10;99.90;;;;;;5074947;28;20227;-64
2023/09/21 01:42:44;;;;;;;12.63;12.23;;;18.10;99.90;;;;;;5075851;28;20211;-62
2023/09/21 01:45:14;;;;;;;12.75;12.35;;;18.00;99.90;;;;;;5073005;28;20204;-62
2023/09/21 01:47:40;;;;;;;12.30;11.90;;;18.00;99.90;;;;;;5071427;28;20207;-63
2023/09/21 01:50:11;;;;;;;12.73;12.32;;;18.00;99.90;;;;;;5070985;28;20253;-62
2023/09/21 01:52:38;;;;;;;12.15;11.75;;;17.90;99.90;;;;;;5070790;28;20218;-62
2023/09/21 01:55:10;;;;;;;13.77;13.27;;;17.80;99.90;;;;;;5070537;28;20242;-62
2023/09/21 01:57:37;;;;;;;12.50;12.10;;;17.80;99.90;;;;;;5067923;28;20214;-63
2023/09/21 02:00:12;;;;;;;17.70;17.05;;;17.80;99.90;;;;;;5070500;28;20784;-63
2023/09/21 02:02:39;;;;;;;12.52;12.02;;;17.80;99.90;;;;;;5068265;28;20768;-62
2023/09/21 02:05:10;;;;;;;13.97;13.47;;;17.80;99.90;;;;;;5070419;28;20211;-63
2023/09/21 02:07:37;;;;;;;12.00;11.60;;;17.90;99.90;;;;;;5070599;28;20268;-63
2023/09/21 02:10:10;;;;;;;12.57;12.18;;;17.90;99.90;;;;;;5070702;28;20864;-63
2023/09/21 02:12:38;;;;;;;13.00;12.55;;;17.90;99.90;;;;;;5070446;28;20722;-63
2023/09/21 02:15:11;;;;;;;13.60;13.13;;;17.90;99.90;;;;;;5068057;28;20227;-62
2023/09/21 02:17:39;;;;;;;14.27;13.77;;;17.90;99.90;;;;;;5070763;28;20662;-62
2023/09/21 02:20:13;;;;;;;14.40;13.90;;;17.90;99.90;;;;;;5070590;28;20612;-62
2023/09/21 02:22:40;;;;;;;13.00;12.50;;;17.90;99.90;;;;;;5070727;28;20846;-62
2023/09/21 02:25:11;;;;;;;12.45;12.05;;;17.90;99.90;;;;;;5070503;28;20302;-62
2023/09/21 02:27:38;;;;;;;13.10;12.60;;;18.00;99.90;;;;;;5070810;28;20238;-64
2023/09/21 02:30:13;;;;;;;13.63;13.13;;;18.00;99.90;;;;;;5070146;28;20243;-61
2023/09/21 02:32:40;;;;;;;16.00;15.50;;;18.00;99.90;;;;;;5070440;28;20220;-62
2023/09/21 02:35:13;;;;;;;14.65;14.15;;;18.00;99.90;;;;;;5083315;28;20227;-62
2023/09/21 02:37:43;;;;;;;16.15;15.55;;;18.00;99.90;;;;;;5070694;28;20207;-62
2023/09/21 02:40:14;;;;;;;16.10;15.60;;;18.00;99.90;;;;;;5070355;28;20235;-62
2023/09/21 02:42:41;;;;;;;12.73;12.32;;;18.00;99.90;;;;;;5071077;28;20809;-63
2023/09/21 02:45:11;;;;;;;15.02;14.52;;;18.00;99.90;;;;;;5074526;28;20211;-61
2023/09/21 02:47:38;;;;;;;14.32;13.82;;;18.00;99.90;;;;;;5074403;28;20272;-62
2023/09/21 02:50:14;;;;;;;15.35;14.85;;;18.10;99.90;;;;;;5071595;28;20227;-64
2023/09/21 02:52:44;;;;;;;13.57;13.07;;;18.10;99.90;;;;;;5072100;28;20215;-63
2023/09/21 02:55:11;;;;;;;14.20;13.70;;;18.10;99.90;;;;;;5070878;28;20237;-62
2023/09/21 02:57:38;;;;;;;14.80;14.30;;;18.10;99.90;;;;;;5070837;28;20290;-62
2023/09/21 03:00:13;;;;;;;16.48;15.88;;;18.10;99.90;;;;;;5070734;28;20259;-63
2023/09/21 03:02:41;;;;;;;16.17;15.57;;;18.10;99.90;;;;;;5070966;28;20615;-63
2023/09/21 03:05:10;;;;;;;14.88;14.38;;;18.10;99.90;;;;;;5070583;28;20203;-62
2023/09/21 03:07:41;;;;;;;16.27;15.68;;;18.10;99.90;;;;;;5071307;28;20268;-63
2023/09/21 03:10:10;;;;;;;14.45;13.95;;;18.10;99.90;;;;;;5074698;28;20227;-61
2023/09/21 03:12:37;;;;;;;14.60;14.10;;;18.10;99.90;;;;;;5075169;28;20211;-62
2023/09/21 03:15:07;;;;;;;16.42;15.82;;;18.10;99.90;;;;;;5078169;28;20249;-63
2023/09/21 03:17:36;;;;;;;15.50;14.93;;;18.10;99.90;;;;;;5089122;28;20214;-63
2023/09/21 03:20:23;;;;;;;17.08;16.48;;;18.00;99.90;;;;;;5088010;28;20235;-63
2023/09/21 03:22:50;;;;;;;16.87;16.27;;;18.00;99.90;;;;;;5081339;28;20222;-62
2023/09/21 03:25:25;;;;;;;16.15;15.57;;;18.10;99.90;;;;;;5074336;28;20617;-62
2023/09/21 03:27:52;;;;;;;15.30;14.80;;;18.00;99.90;;;;;;5074704;28;20218;-63
2023/09/21 03:30:20;;;;;;;15.53;14.97;;;18.00;99.90;;;;;;5074209;28;20310;-63
2023/09/21 03:32:47;;;;;;;15.50;15.00;;;18.00;99.90;;;;;;5074211;28;20211;-62
2023/09/21 03:35:16;;;;;;;15.37;14.87;;;18.10;99.90;;;;;;5074013;28;20227;-63
2023/09/21 03:37:43;;;;;;;16.33;15.52;;;18.10;99.90;;;;;;5074441;28;20217;-63
2023/09/21 03:40:11;;;;;;;16.35;15.80;;;18.10;99.90;;;;;;5074049;28;20227;-63
2023/09/21 03:42:38;;;;;;;15.23;14.73;;;18.10;99.90;;;;;;5074359;28;20903;-63
2023/09/21 03:45:07;;;;;;;16.50;15.90;;;18.10;99.90;;;;;;5074417;28;20211;-63
2023/09/21 03:47:34;;;;;;;15.82;15.32;;;18.10;99.90;;;;;;5074137;28;20222;-63
2023/09/21 03:50:01;;;;;;;15.25;14.75;;;18.20;99.90;;;;;;5073854;28;20612;-63
2023/09/21 03:52:30;;;;;;;15.57;15.02;;;18.20;99.90;;;;;;5074159;28;20214;-63
2023/09/21 03:54:57;;;;;;;15.60;15.10;;;18.10;99.90;;;;;;5066131;28;20211;-63
2023/09/21 03:57:23;;;;;;;14.57;14.07;;;18.20;99.90;;;;;;5072172;28;20294;-62
2023/09/21 03:59:50;;;;;;;15.30;14.80;;;18.30;99.90;;;;;;5070542;28;20234;-63
2023/09/21 04:02:19;;;;;;;16.40;15.83;;;18.30;99.90;;;;;;5068342;28;20203;-63
2023/09/21 04:04:50;;;;;;;14.80;14.30;;;18.30;99.90;;;;;;5072369;28;20210;-64
2023/09/21 04:07:17;;;;;;;15.40;14.90;;;18.30;99.90;;;;;;5073504;28;20207;-63
2023/09/21 04:09:45;;;;;;;14.95;14.45;;;18.20;99.90;;;;;;5073458;28;20234;-63
2023/09/21 04:12:13;;;;;;;18.30;17.67;;;18.20;99.90;;;;;;5069326;28;20847;-63
2023/09/21 04:14:44;;;;;;;16.13;15.52;;;18.10;99.90;;;;;;5073199;28;20219;-63
2023/09/21 04:17:11;;;;;;;16.80;16.23;;;18.10;99.90;;;;;;5071946;28;20592;-62
2023/09/21 04:19:39;;;;;;;22.90;22.10;;;18.00;99.90;;;;;;5068511;28;20233;-64
2023/09/21 04:22:07;;;;;;;19.25;18.63;;;18.00;99.90;;;;;;5077442;28;20218;-62
2023/09/21 04:24:34;;;;;;;17.52;16.92;;;17.90;99.90;;;;;;5082984;28;20217;-62
2023/09/21 04:27:03;;;;;;;16.85;16.25;;;17.90;99.90;;;;;;5080026;28;20203;-63
2023/09/21 04:29:30;;;;;;;15.80;15.25;;;17.90;99.90;;;;;;5076763;28;20577;-62
2023/09/21 04:31:57;;;;;;;15.30;14.80;;;18.00;99.90;;;;;;5068548;28;20314;-62
2023/09/21 04:34:24;;;;;;;14.93;14.43;;;18.00;99.90;;;;;;5073482;28;20217;-62
2023/09/21 04:36:51;;;;;;;17.30;16.70;;;18.10;99.90;;;;;;5073232;28;20276;-64
2023/09/21 04:39:18;;;;;;;17.23;16.63;;;18.20;99.90;;;;;;5072755;28;20233;-62
2023/09/21 04:41:45;;;;;;;15.73;15.20;;;18.30;99.90;;;;;;5067686;28;20208;-62
2023/09/21 04:44:14;;;;;;;15.98;15.38;;;18.30;99.90;;;;;;5066377;28;20211;-61
2023/09/21 04:46:42;;;;;;;15.10;14.57;;;18.40;99.90;;;;;;5072692;28;20704;-63
2023/09/21 04:49:08;;;;;;;17.07;16.47;;;18.40;99.90;;;;;;5072805;28;20713;-63
2023/09/21 04:51:35;;;;;;;17.20;16.60;;;18.40;99.90;;;;;;5071612;28;20597;-63
2023/09/21 04:54:03;;;;;;;16.77;16.17;;;18.40;99.90;;;;;;5072773;28;20211;-61
2023/09/21 04:56:30;;;;;;;16.85;16.15;;;18.50;99.90;;;;;;5071798;28;20223;-60
2023/09/21 04:58:57;;;;;;;17.00;16.40;;;18.60;99.90;;;;;;5069156;28;20710;-63
2023/09/21 05:01:25;;;;;;;17.30;16.70;;;18.60;99.90;;;;;;5073205;28;20579;-62
2023/09/21 05:03:52;;;;;;;17.48;16.88;;;18.60;99.90;;;;;;5069402;28;20230;-62
2023/09/21 05:06:19;;;;;;;16.63;16.03;;;18.70;99.90;;;;;;5071431;28;20560;-62
2023/09/21 05:08:46;;;;;;;15.37;14.87;;;18.60;99.90;;;;;;5058667;28;20261;-62
2023/09/21 05:11:13;;;;;;;19.70;18.97;;;18.60;99.90;;;;;;5058159;28;20284;-62
2023/09/21 05:13:40;;;;;;;13.98;13.48;;;18.60;99.90;;;;;;5069734;28;20554;-63
2023/09/21 05:16:07;;;;;;;17.37;16.77;;;18.60;99.90;;;;;;5059005;28;20285;-62
2023/09/21 05:18:35;;;;;;;16.27;15.70;;;18.70;99.90;;;;;;5069215;28;20207;-62
2023/09/21 05:21:04;;;;;;;17.20;16.60;;;18.70;99.90;;;;;;5071997;28;20221;-62
2023/09/21 05:23:32;;;;;;;15.93;15.33;;;18.70;99.90;;;;;;5067996;28;20215;-62
2023/09/21 05:25:58;;;;;;;16.35;15.75;;;18.70;99.90;;;;;;5071679;28;20195;-64
2023/09/21 05:28:25;;;;;;;18.90;18.20;;;18.60;99.90;;;;;;5070308;28;20269;-62
2023/09/21 05:30:54;;;;;;;22.03;21.27;;;18.60;99.90;;;;;;5067584;28;20228;-61
2023/09/21 05:33:20;;;;;;;22.60;21.77;;;18.60;99.90;;;;;;5067206;28;20959;-62
2023/09/21 05:35:54;;;;;;;30.20;29.15;;;18.50;99.90;;;;;;5067224;28;20587;-63
2023/09/21 05:38:21;;;;;;;28.57;27.50;;;18.50;99.90;;;;;;5063816;28;20260;-62
2023/09/21 05:40:48;;;;;;;34.33;33.07;;;18.30;99.90;;;;;;5068975;28;20262;-62
2023/09/21 05:43:15;;;;;;;32.17;31.00;;;18.30;99.90;;;;;;5065082;28;20207;-62
2023/09/21 05:45:42;;;;;;;23.63;22.83;;;18.20;99.90;;;;;;5069592;28;20298;-62
2023/09/21 05:48:14;;;;;;;35.70;34.43;;;18.30;99.90;;;;;;5071679;28;20207;-61
2023/09/21 05:50:42;;;;;;;37.37;36.03;;;18.20;99.90;;;;;;5071858;28;20239;-61
2023/09/21 05:53:11;;;;;;;30.95;29.85;;;18.20;99.90;;;;;;5071467;28;20294;-62
2023/09/21 05:55:37;;;;;;;33.73;32.53;;;18.20;99.90;;;;;;5071228;28;20207;-62
2023/09/21 05:58:05;;;;;;;33.87;32.70;;;18.30;99.90;;;;;;5062498;28;20218;-61
2023/09/21 06:00:32;;;;;;;37.22;35.88;;;18.30;99.90;;;;;;5064112;28;20230;-62
2023/09/21 06:02:59;;;;;;;31.10;30.00;;;18.30;99.90;;;;;;5071386;28;20217;-61
2023/09/21 06:05:27;;;;;;;37.40;36.10;;;18.30;99.90;;;;;;5070387;28;20234;-63
2023/09/21 06:07:54;;;;;;;35.93;34.63;;;18.30;99.90;;;;;;5071087;28;20203;-63
2023/09/21 06:10:23;;;;;;;36.40;35.10;;;18.30;99.90;;;;;;5071284;28;20292;-64
2023/09/21 06:12:50;;;;;;;36.97;35.67;;;18.30;99.90;;;;;;5071044;28;20219;-63
2023/09/21 06:15:17;;;;;;;35.30;34.03;;;18.30;99.90;;;;;;5070968;28;20203;-62
2023/09/21 06:17:45;;;;;;;34.73;33.50;;;18.30;99.90;;;;;;5070954;28;20302;-63
2023/09/21 06:20:12;;;;;;;36.40;35.13;;;18.30;99.90;;;;;;5071271;28;20657;-61
2023/09/21 06:22:39;;;;;;;35.40;34.17;;;18.40;99.90;;;;;;5071052;28;20210;-62
2023/09/21 06:25:07;;;;;;;30.20;29.15;;;18.40;99.90;;;;;;5070863;28;20211;-62
2023/09/21 06:27:36;;;;;;;38.47;37.10;;;18.40;99.90;;;;;;5067492;28;20261;-62
2023/09/21 06:30:04;;;;;;;34.97;33.73;;;18.40;99.90;;;;;;5073757;28;20318;-63
2023/09/21 06:32:31;;;;;;;38.13;36.77;;;18.30;99.90;;;;;;5071305;28;20593;-62
2023/09/21 06:34:59;;;;;;;43.40;41.83;;;18.40;99.90;;;;;;5070615;28;20245;-64
2023/09/21 06:37:30;;;;;;;36.87;35.37;;;18.40;99.90;;;;;;5069783;28;20313;-63
2023/09/21 06:39:57;;;;;;;37.30;35.92;;;18.40;99.90;;;;;;5067159;28;20231;-62
2023/09/21 06:42:24;;;;;;;34.37;33.17;;;18.50;99.90;;;;;;5068763;28;20253;-63
2023/09/21 06:44:54;;;;;;;28.17;27.20;;;18.50;99.90;;;;;;5066146;28;20211;-64
2023/09/21 06:47:22;;;;;;;25.52;24.60;;;18.60;99.90;;;;;;5064904;28;20468;-63
2023/09/21 06:49:53;;;;;;;23.33;22.48;;;18.60;99.90;;;;;;5065740;28;20504;-63
2023/09/21 06:52:21;;;;;;;20.50;19.70;;;18.60;99.90;;;;;;5061781;28;20648;-62
2023/09/21 06:54:48;;;;;;;17.75;17.13;;;18.70;99.90;;;;;;5069483;28;20208;-63
2023/09/21 06:57:15;;;;;;;17.23;16.63;;;18.70;99.90;;;;;;5066512;28;20231;-63
2023/09/21 06:59:43;;;;;;;17.27;16.67;;;18.80;99.90;;;;;;5060256;28;20224;-63
2023/09/21 07:02:11;;;;;;;16.98;16.38;;;18.90;99.90;;;;;;5067735;28;20207;-62
2023/09/21 07:04:37;;;;;;;18.33;17.70;;;18.90;99.90;;;;;;5069501;28;20207;-64
2023/09/21 07:07:06;;;;;;;17.88;17.25;;;19.00;99.90;;;;;;5069949;28;20205;-64
2023/09/21 07:09:34;;;;;;;17.30;16.70;;;19.00;99.90;;;;;;5068030;28;20253;-63
2023/09/21 07:12:01;;;;;;;17.45;16.77;;;19.10;99.90;;;;;;5069063;28;20207;-63
2023/09/21 07:14:28;;;;;;;17.77;17.17;;;19.20;99.90;;;;;;5066439;28;20238;-63
2023/09/21 07:16:56;;;;;;;18.20;17.50;;;19.20;99.90;;;;;;5060854;28;20698;-64
2023/09/21 07:19:25;;;;;;;18.53;17.93;;;19.20;99.90;;;;;;5070863;28;20700;-64
2023/09/21 07:21:52;;;;;;;19.80;19.10;;;19.30;99.90;;;;;;5070908;28;20212;-62
2023/09/21 07:24:20;;;;;;;18.70;18.00;;;19.30;99.90;;;;;;5068139;28;20229;-63
2023/09/21 07:26:46;;;;;;;17.17;16.58;;;19.30;99.90;;;;;;5070591;28;20515;-63
2023/09/21 07:29:14;;;;;;;18.17;17.55;;;19.40;99.90;;;;;;5070425;28;20219;-64
2023/09/21 07:31:41;;;;;;;18.77;18.07;;;19.40;99.90;;;;;;5067504;28;20231;-62
2023/09/21 07:34:08;;;;;;;19.45;18.75;;;19.50;99.90;;;;;;5070255;28;20235;-61
2023/09/21 07:36:39;;;;;;;18.40;17.80;;;19.50;99.90;;;;;;5069179;28;20223;-63
2023/09/21 07:39:09;;;;;;;20.30;19.55;;;19.50;99.90;;;;;;5066170;28;20231;-62
2023/09/21 07:41:36;;;;;;;17.93;17.33;;;19.50;99.90;;;;;;5068111;28;20215;-64
2023/09/21 07:44:08;;;;;;;18.88;18.20;;;19.60;99.90;;;;;;5069080;28;20708;-62
2023/09/21 07:46:35;;;;;;;21.27;20.37;;;19.60;99.90;;;;;;5064154;28;20204;-62
2023/09/21 07:49:04;;;;;;;25.60;24.67;;;19.60;99.90;;;;;;5066417;28;20239;-62
2023/09/21 07:51:31;;;;;;;19.27;18.58;;;19.70;99.90;;;;;;5064431;28;20695;-64
2023/09/21 07:54:00;;;;;;;18.57;17.97;;;19.80;99.90;;;;;;5071281;28;20211;-63
2023/09/21 07:56:27;;;;;;;18.40;17.70;;;19.90;99.90;;;;;;5068861;28;20226;-63
2023/09/21 07:58:54;;;;;;;17.33;16.73;;;20.00;99.90;;;;;;5072594;28;20231;-65
2023/09/21 08:01:21;;;;;;;17.17;16.58;;;20.10;99.90;;;;;;5068708;28;20226;-63
2023/09/21 08:03:50;;;;;;;16.47;15.90;;;20.10;99.90;;;;;;5070024;28;20210;-62
2023/09/21 08:06:19;;;;;;;17.60;17.00;;;20.20;99.90;;;;;;5073585;28;20269;-63
2023/09/21 08:08:46;;;;;;;17.83;17.23;;;20.20;99.90;;;;;;5072921;28;20212;-64
2023/09/21 08:11:15;;;;;;;15.15;14.65;;;20.20;99.90;;;;;;5067821;28;20298;-64
2023/09/21 08:13:41;;;;;;;16.80;16.20;;;20.20;99.90;;;;;;5074006;28;20204;-63
2023/09/21 08:16:08;;;;;;;15.90;15.40;;;20.30;99.90;;;;;;5080812;28;20211;-63
2023/09/21 08:18:37;;;;;;;16.83;16.23;;;20.30;99.90;;;;;;5080381;28;20612;-62
2023/09/21 08:21:04;;;;;;;16.50;15.93;;;20.40;99.90;;;;;;5076956;28;20614;-62
2023/09/21 08:23:31;;;;;;;16.33;15.80;;;20.50;99.90;;;;;;5081578;28;20682;-64
2023/09/21 08:25:58;;;;;;;16.67;16.07;;;20.50;99.90;;;;;;5076038;28;20631;-62
2023/09/21 08:28:26;;;;;;;15.70;15.20;;;20.50;99.90;;;;;;5073236;28;20209;-64
2023/09/21 08:30:55;;;;;;;16.83;16.23;;;20.60;99.90;;;;;;5071673;28;20622;-63
2023/09/21 08:33:22;;;;;;;16.25;15.73;;;20.70;99.90;;;;;;5069149;28;20207;-64
2023/09/21 08:35:49;;;;;;;16.48;15.88;;;20.70;99.90;;;;;;5072386;28;20207;-62
2023/09/21 08:38:17;;;;;;;18.40;17.70;;;20.80;99.90;;;;;;5065924;28;20231;-62
2023/09/21 08:40:46;;;;;;;18.57;17.97;;;20.90;99.90;;;;;;5073105;28;20231;-63
2023/09/21 08:43:21;;;;;;;19.40;18.70;;;21.10;99.90;;;;;;5073044;28;20232;-64
2023/09/21 08:45:51;;;;;;;18.27;17.67;;;21.20;99.90;;;;;;5071769;28;20293;-63
2023/09/21 08:48:20;;;;;;;18.23;17.63;;;21.30;99.90;;;;;;5073295;28;20199;-64
2023/09/21 08:50:49;;;;;;;19.70;19.00;;;21.40;99.90;;;;;;5073109;28;20251;-64
2023/09/21 08:53:19;;;;;;;20.87;20.17;;;21.50;99.90;;;;;;5075500;28;20203;-64
2023/09/21 08:55:48;;;;;;;17.53;16.93;;;21.60;99.90;;;;;;5073786;28;20207;-64
2023/09/21 08:58:23;;;;;;;19.33;18.63;;;21.70;99.90;;;;;;5072089;28;20227;-63
2023/09/21 09:00:54;;;;;;;19.40;18.70;;;21.80;99.90;;;;;;5069536;28;20231;-64
2023/09/21 09:03:22;;;;;;;18.38;17.77;;;21.90;99.90;;;;;;5069880;28;20203;-63
2023/09/21 09:05:49;;;;;;;22.00;21.23;;;21.90;99.90;;;;;;5068881;28;20207;-63
2023/09/21 09:08:16;;;;;;;21.25;20.55;;;22.10;99.90;;;;;;5071493;28;20196;-64
2023/09/21 09:10:43;;;;;;;20.40;19.70;;;22.20;99.90;;;;;;5071434;28;20693;-64
2023/09/21 09:13:10;;;;;;;22.23;21.42;;;22.20;99.90;;;;;;5072214;28;20693;-63
2023/09/21 09:15:38;;;;;;;25.40;24.50;;;22.30;99.90;;;;;;5071745;28;20200;-63
2023/09/21 09:18:08;;;;;;;23.67;22.87;;;22.30;99.90;;;;;;5071646;28;20792;-62
2023/09/21 09:20:36;;;;;;;25.05;24.17;;;22.40;99.90;;;;;;5069597;28;20324;-64
2023/09/21 09:23:08;;;;;;;23.65;22.85;;;22.50;99.90;;;;;;5075044;28;20227;-65
2023/09/21 09:25:36;;;;;;;25.23;24.35;;;22.60;99.90;;;;;;5081902;28;20213;-62
2023/09/21 09:28:05;;;;;;;25.63;24.73;;;22.60;99.90;;;;;;5086265;28;20196;-63
2023/09/21 09:30:32;;;;;;;23.33;22.52;;;22.70;99.90;;;;;;5084505;28;20664;-65
2023/09/21 09:33:00;;;;;;;25.75;24.75;;;22.80;99.90;;;;;;5080873;28;20206;-64
2023/09/21 09:35:29;;;;;;;21.35;20.65;;;22.80;99.90;;;;;;5074881;28;20195;-62
2023/09/21 09:37:56;;;;;;;24.95;24.08;;;22.90;99.90;;;;;;5069586;28;20230;-64
2023/09/21 09:40:24;;;;;;;23.02;22.23;;;22.90;99.90;;;;;;5071768;28;20211;-64
2023/09/21 09:42:52;;;;;;;21.40;20.70;;;22.90;99.90;;;;;;5071660;28;20252;-64
2023/09/21 09:45:24;;;;;;;18.85;18.23;;;22.90;99.90;;;;;;5071789;28;20196;-64
2023/09/21 09:47:54;;;;;;;19.50;18.83;;;22.90;99.90;;;;;;5064929;28;20297;-63
2023/09/21 09:50:24;;;;;;;17.98;17.38;;;22.90;99.90;;;;;;5067973;28;20721;-63
2023/09/21 09:53:00;;;;;;;21.90;21.17;;;22.90;99.90;;;;;;5069501;28;20218;-63
2023/09/21 09:55:31;;;;;;;22.38;21.60;;;23.00;99.90;;;;;;5066198;28;20203;-63
2023/09/21 09:57:58;;;;;;;20.50;19.80;;;23.00;99.90;;;;;;5072861;28;20701;-63
2023/09/21 10:00:27;;;;;;;18.17;17.58;;;23.00;99.90;;;;;;5065366;28;20223;-64
2023/09/21 10:02:55;;;;;;;20.95;20.25;;;23.10;99.90;;;;;;5067248;28;20203;-64
2023/09/21 10:05:24;;;;;;;19.30;18.60;;;23.20;99.90;;;;;;5065188;28;20203;-64
2023/09/21 10:07:54;;;;;;;17.75;17.15;;;23.20;99.90;;;;;;5065224;28;20210;-64
2023/09/21 10:10:22;;;;;;;20.13;19.42;;;23.20;99.90;;;;;;5069187;28;20247;-64
2023/09/21 10:12:52;;;;;;;18.40;17.80;;;23.30;99.90;;;;;;5068835;28;20195;-63
2023/09/21 10:15:22;;;;;;;20.00;19.30;;;23.30;99.90;;;;;;5069127;28;21049;-64
2023/09/21 10:17:50;;;;;;;19.85;19.15;;;23.40;99.90;;;;;;5069873;28;20215;-65
2023/09/21 10:20:24;;;;;;;20.98;20.27;;;23.50;99.90;;;;;;5069219;28;20223;-63
2023/09/21 10:22:53;;;;;;;19.50;18.80;;;23.70;99.90;;;;;;5066532;28;20206;-64
2023/09/21 10:25:37;;;;;;;22.23;21.42;;;24.00;99.90;;;;;;5060553;28;21228;-64
2023/09/21 10:28:23;;;;;;;18.20;17.60;;;24.30;99.90;;;;;;5057205;28;20552;-65
2023/09/21 10:30:53;;;;;;;19.80;19.10;;;24.70;99.90;;;;;;5066072;28;20249;-63
2023/09/21 10:33:20;;;;;;;20.08;19.38;;;25.30;99.90;;;;;;5067861;28;20203;-63
2023/09/21 10:35:49;;;;;;;20.98;20.25;;;25.80;99.90;;;;;;5066754;28;20218;-63
2023/09/21 10:38:18;;;;;;;18.65;18.02;;;25.90;99.90;;;;;;5070125;28;20298;-62
2023/09/21 10:40:45;;;;;;;17.63;17.00;;;26.00;99.90;;;;;;5069363;28;20223;-65
2023/09/21 10:43:46;;;;;;;19.83;19.13;;;26.10;99.90;;;;;;5067515;28;20205;-62
2023/09/21 10:46:21;;;;;;;17.63;17.02;;;26.40;99.90;;;;;;5069788;28;20203;-64
2023/09/21 10:48:49;;;;;;;21.63;20.85;;;26.60;99.90;;;;;;5067769;28;20531;-64
2023/09/21 10:51:15;;;;;;;20.15;19.45;;;26.70;99.90;;;;;;5071004;28;20286;-63
2023/09/21 10:53:48;;;;;;;21.98;21.23;;;26.90;99.90;;;;;;5068838;28;20191;-65
2023/09/21 10:56:15;;;;;;;23.70;22.88;;;27.00;99.90;;;;;;5062038;28;20342;-62
2023/09/21 10:58:42;;;;;;;19.13;18.50;;;27.10;99.90;;;;;;5064041;28;20215;-62
2023/09/21 11:01:10;;;;;;;17.08;16.48;;;27.10;99.90;;;;;;5065498;28;20209;-64
2023/09/21 11:03:38;;;;;;;18.58;17.98;;;27.30;99.90;;;;;;5065706;28;20207;-63
2023/09/21 11:06:06;;;;;;;15.65;15.15;;;27.30;99.90;;;;;;5066595;28;20241;-64
2023/09/21 11:08:34;;;;;;;17.77;17.17;;;27.40;99.90;;;;;;5065683;28;20227;-63
2023/09/21 11:11:05;;;;;;;15.45;14.90;;;27.30;99.90;;;;;;5068165;28;20206;-64
2023/09/21 11:13:32;;;;;;;16.65;16.05;;;27.20;99.90;;;;;;5066144;28;20290;-64
2023/09/21 11:15:59;;;;;;;16.05;15.55;;;27.10;99.90;;;;;;5070466;28;20384;-64
2023/09/21 11:18:28;;;;;;;18.35;17.73;;;27.00;99.90;;;;;;5070046;28;20634;-64
2023/09/21 11:20:56;;;;;;;17.83;17.23;;;26.90;99.90;;;;;;5070596;28;20254;-63
2023/09/21 11:23:24;;;;;;;21.10;20.40;;;26.80;99.90;;;;;;5069386;28;20614;-62
2023/09/21 11:25:51;;;;;;;18.25;17.65;;;26.80;99.90;;;;;;5070292;28;20207;-64
2023/09/21 11:28:20;;;;;;;21.00;20.30;;;26.70;99.90;;;;;;5068729;28;20232;-64
2023/09/21 11:30:50;;;;;;;23.50;22.67;;;26.70;99.90;;;;;;5067353;28;20223;-63
2023/09/21 11:33:20;;;;;;;21.40;20.65;;;26.70;99.90;;;;;;5070214;28;20235;-62
2023/09/21 11:35:47;;;;;;;20.98;20.25;;;26.60;99.90;;;;;;5069136;28;20218;-65
2023/09/21 11:38:16;;;;;;;22.35;21.55;;;26.60;99.90;;;;;;5072414;28;20219;-63
2023/09/21 11:40:43;;;;;;;18.33;17.70;;;26.60;99.90;;;;;;5069105;28;20219;-63
2023/09/21 11:43:13;;;;;;;20.08;19.38;;;26.60;99.90;;;;;;5070434;28;20230;-62
2023/09/21 11:45:41;;;;;;;20.75;20.05;;;26.60;99.90;;;;;;5072348;28;20207;-65
2023/09/21 11:48:08;;;;;;;20.38;19.67;;;26.60;99.90;;;;;;5070882;28;20192;-62
2023/09/21 11:50:36;;;;;;;20.63;19.90;;;26.50;99.90;;;;;;5071631;28;20331;-64
2023/09/21 11:53:06;;;;;;;16.15;15.55;;;26.40;99.90;;;;;;5070218;28;20639;-63
2023/09/21 11:55:33;;;;;;;19.80;19.10;;;26.40;99.90;;;;;;5072005;28;20267;-63
2023/09/21 11:58:07;;;;;;;20.45;19.75;;;26.30;99.90;;;;;;5072591;28;20226;-64
2023/09/21 12:00:43;;;;;;;20.25;19.55;;;26.40;99.90;;;;;;5072374;28;20227;-64
2023/09/21 12:03:12;;;;;;;18.73;18.13;;;26.30;99.90;;;;;;5071210;28;20226;-64
2023/09/21 12:05:40;;;;;;;19.98;19.27;;;26.50;99.90;;;;;;5070262;28;20644;-64
2023/09/21 12:08:07;;;;;;;22.13;21.38;;;26.60;99.90;;;;;;5068668;28;20640;-64
2023/09/21 12:10:35;;;;;;;24.05;23.25;;;26.80;99.90;;;;;;5071800;28;20231;-64
2023/09/21 12:13:03;;;;;;;23.02;22.23;;;27.00;99.90;;;;;;5066890;28;20207;-64
2023/09/21 12:15:30;;;;;;;22.38;21.58;;;27.10;99.90;;;;;;5067174;28;20292;-63
2023/09/21 12:17:56;;;;;;;22.92;22.13;;;27.10;99.90;;;;;;5065815;28;20225;-63
2023/09/21 12:20:26;;;;;;;21.83;21.02;;;27.00;99.90;;;;;;5068582;28;20462;-63
2023/09/21 12:22:52;;;;;;;24.85;23.98;;;27.00;99.90;;;;;;5069717;28;20211;-64
2023/09/21 12:25:20;;;;;;;15.70;15.18;;;26.90;99.90;;;;;;5070172;28;20225;-63
2023/09/21 12:27:47;;;;;;;19.48;18.80;;;26.80;99.90;;;;;;5065384;28;20667;-63
2023/09/21 12:30:14;;;;;;;20.80;20.10;;;26.80;99.90;;;;;;5067650;28;20223;-63
2023/09/21 12:32:41;;;;;;;21.33;20.63;;;26.90;99.90;;;;;;5072990;28;20210;-63
2023/09/21 12:35:09;;;;;;;15.75;15.15;;;26.80;99.90;;;;;;5071634;28;20235;-62